Kapuskasing Airport
CYYU : rendu visible

Aérodrome :











RETROUVEZ-NOUS SUR...

 
LOGIN :

S'inscrire | Disclaimer

   EN    FR    IT 

 









Légende :    VFR   VFR Marginal   IFR   IFR Intensif   IFR Très Intensif
Visi : 
Plafond : 
>= 8 km
>= 3000ft
5 à 8 km
1000 à 3000 ft
1500m à 5 km
500 à 1000 ft
800 à 1500m
200 à 500 ft
< 800m
< 200 ft
Symboles :   Orages  Brouillard  Fortes neiges  Fortes précipitations  Vent > 20 kt






- Altitude de l'aérodrome : 743 ft
- Code IATA : YYU


CYYU - Kapuskasing

DERNIER METAR :
  • 031500Z 25007KT 3SM -SN SCT007 BKN009 OVC010 M04/M05 A2969 RMK SN1SC2SC2SC3 SLP069

METARs EXPIRÉS :
  • 031400Z 25009KT 3SM -SN SCT006 BKN007 BKN008 BKN009 OVC011 M05/M06 A2970 RMK SN1SC2SC2SC1SC1SC1 SLP073

TAF TAF CYYU
Valide du 03 à 14h jusqu'au 04 à 02h UTC


031340Z 0314/0402 25010G20KT 2SM -SN OVC006
TEMPO 0314/0324 P6SM NSW OVC012
FM040000 27008KT 21/2SM -SN OVC007
TEMPO 0400/0402 P6SM NSW OVC012
PROB30 0400/0402 2SM -FZDZ BR RMK NXT FCST BY 032000Z
FIR CZYZ / Amérique du Nord



MET'MAP, la Météo Aéronautique d'un coup d'oeil ! - Copyright ORBIFLY Décembre 2007 - Disclaimer

ORBIFLY MET'MAP TEAM :

Programmation & Développement : Alexandra Zaïnal
Sur une idée originale de : Baudouin d'Aumeries
Assistance à la programmation : Marc-Olivier Méhu
Soutien technique & logistique : Manuel Goepfert

Contact : metmap@orbifly.com




SOURCES & CREDITS :

   NOAA       Earth
Advisory